Time;durP1;ratioP1;P1;durP2;ratioP2;P2;SDS_P1;SDS_P2;PMS_P1;PMS_P2;Temp;Humidity;BMP_temperature;BMP_pressure;BME280_temperature;BME280_humidity;BME280_pressure;Samples;Min_cycle;Max_cycle;Signal;HPM_P1;HPM_P2
2022/05/12 00:00:42;;;;;;;;;;;;;;;;;;4989110;28;20401;-58
2022/05/12 00:03:07;;;;;;;;;;;;;;;;;;4992900;28;20389;-58
2022/05/12 00:05:33;;;;;;;;;;;;;;;;;;4991247;28;20374;-58
2022/05/12 00:07:58;;;;;;;;;;;;;;;;;;4995337;28;19917;-58
2022/05/12 00:10:23;;;;;;;;;;;;;;;;;;4987187;28;19988;-58
2022/05/12 00:12:48;;;;;;;;;;;;;;;;;;4987709;28;20493;-58
2022/05/12 00:15:14;;;;;;;;;;;;;;;;;;4992308;28;19929;-59
2022/05/12 00:17:39;;;;;;;;;;;;;;;;;;4997069;28;19918;-58
2022/05/12 00:20:04;;;;;;;;;;;;;;;;;;4996549;28;19924;-59
2022/05/12 00:22:29;;;;;;;;;;;;;;;;;;4985586;28;20016;-57
2022/05/12 00:24:55;;;;;;;;;;;;;;;;;;5001668;28;19991;-59
2022/05/12 00:27:20;;;;;;;;;;;;;;;;;;4994701;28;19963;-60
2022/05/12 00:29:45;;;;;;;;;;;;;;;;;;4989410;28;20088;-56
2022/05/12 00:32:10;;;;;;;;;;;;;;;;;;4995401;28;20011;-57
2022/05/12 00:34:35;;;;;;;;;;;;;;;;;;4993392;28;19924;-57
2022/05/12 00:37:00;;;;;;;;;;;;;;;;;;4988279;28;20379;-57
2022/05/12 00:39:26;;;;;;;;;;;;;;;;;;4990792;28;19925;-56
2022/05/12 00:41:51;;;;;;;;;;;;;;;;;;4983843;28;19972;-60
2022/05/12 00:44:16;;;;;;;;;;;;;;;;;;4987836;28;20029;-57
2022/05/12 00:46:41;;;;;;;;;;;;;;;;;;4988099;28;19979;-56
2022/05/12 00:49:07;;;;;;;;;;;;;;;;;;4993542;28;20282;-57
2022/05/12 00:51:32;;;;;;;;;;;;;;;;;;4996093;28;19918;-57
2022/05/12 00:53:57;;;;;;;;;;;;;;;;;;4989694;28;19917;-56
2022/05/12 00:56:22;;;;;;;;;;;;;;;;;;4991116;28;20290;-58
2022/05/12 00:58:50;;;;;;;;;;;;;;;;;;4983564;28;20565;-58
2022/05/12 01:01:16;;;;;;;;;;;;;;;;;;4989931;28;20395;-60
2022/05/12 01:03:41;;;;;;;;;;;;;;;;;;4995615;28;19921;-57
2022/05/12 01:06:06;;;;;;;;;;;;;;;;;;4983503;28;20012;-57
2022/05/12 01:08:31;;;;;;;;;;;;;;;;;;4990608;28;19995;-57
2022/05/12 01:10:57;;;;;;;;;;;;;;;;;;4989740;28;19924;-57
2022/05/12 01:13:22;;;;;;;;;;;;;;;;;;4989685;28;19997;-57
2022/05/12 01:15:47;;;;;;;;;;;;;;;;;;5009258;28;19933;-58
2022/05/12 01:18:17;;;;;;;;;;;;;;;;;;4988892;28;19960;-58
2022/05/12 01:20:42;;;;;;;;;;;;;;;;;;4994048;28;19997;-57
2022/05/12 01:23:08;;;;;;;;;;;;;;;;;;4987380;28;19918;-58
2022/05/12 01:25:33;;;;;;;;;;;;;;;;;;4984197;28;19921;-58
2022/05/12 01:27:58;;;;;;;;;;;;;;;;;;4992128;28;19918;-58
2022/05/12 01:30:23;;;;;;;;;;;;;;;;;;4995758;28;19957;-58
2022/05/12 01:32:48;;;;;;;;;;;;;;;;;;4996966;28;20311;-58
2022/05/12 01:35:14;;;;;;;;;;;;;;;;;;5000085;28;20378;-58
2022/05/12 01:37:39;;;;;;;;;;;;;;;;;;4998640;28;20006;-58
2022/05/12 01:40:04;;;;;;;;;;;;;;;;;;4998339;28;19928;-58
2022/05/12 01:42:29;;;;;;;;;;;;;;;;;;4993581;28;19925;-57
2022/05/12 01:44:54;;;;;;;;;;;;;;;;;;5001051;28;19932;-58
2022/05/12 01:47:20;;;;;;;;;;;;;;;;;;4991765;28;19924;-57
2022/05/12 01:49:47;;;;;;;;;;;;;;;;;;4993401;28;19924;-58
2022/05/12 01:52:12;;;;;;;;;;;;;;;;;;4993583;28;19924;-58
2022/05/12 01:54:37;;;;;;;;;;;;;;;;;;4987504;28;19917;-57
2022/05/12 01:57:02;;;;;;;;;;;;;;;;;;5008158;28;20432;-58
2022/05/12 01:59:28;;;;;;;;;;;;;;;;;;5007491;28;19934;-57
2022/05/12 02:01:53;;;;;;;;;;;;;;;;;;4992398;28;19924;-58
2022/05/12 02:04:18;;;;;;;;;;;;;;;;;;4993076;28;20488;-59
2022/05/12 02:06:43;;;;;;;;;;;;;;;;;;4992852;28;19936;-57
2022/05/12 02:09:08;;;;;;;;;;;;;;;;;;4999618;28;19925;-58
2022/05/12 02:11:34;;;;;;;;;;;;;;;;;;4990077;28;19928;-58
2022/05/12 02:13:59;;;;;;;;;;;;;;;;;;4989276;28;19917;-57
2022/05/12 02:16:25;;;;;;;;;;;;;;;;;;4993927;28;20338;-58
2022/05/12 02:18:50;;;;;;;;;;;;;;;;;;5005181;28;19917;-59
2022/05/12 02:21:16;;;;;;;;;;;;;;;;;;4994101;28;19918;-58
2022/05/12 02:23:41;;;;;;;;;;;;;;;;;;4987613;28;19918;-58
2022/05/12 02:26:06;;;;;;;;;;;;;;;;;;4991675;28;19917;-59
2022/05/12 02:28:31;;;;;;;;;;;;;;;;;;4994044;28;19914;-58
2022/05/12 02:30:56;;;;;;;;;;;;;;;;;;4989579;28;19917;-58
2022/05/12 02:33:22;;;;;;;;;;;;;;;;;;4996897;28;19918;-58
2022/05/12 02:35:47;;;;;;;;;;;;;;;;;;4994188;28;19918;-58
2022/05/12 02:38:12;;;;;;;;;;;;;;;;;;5001282;28;20009;-58
2022/05/12 02:40:37;;;;;;;;;;;;;;;;;;4998128;28;19924;-59
2022/05/12 02:43:02;;;;;;;;;;;;;;;;;;5000245;28;20016;-59
2022/05/12 02:45:28;;;;;;;;;;;;;;;;;;5000997;28;20294;-59
2022/05/12 02:47:53;;;;;;;;;;;;;;;;;;4989597;28;19918;-58
2022/05/12 02:50:18;;;;;;;;;;;;;;;;;;5005767;28;20472;-59
2022/05/12 02:52:43;;;;;;;;;;;;;;;;;;4998272;28;19928;-59
2022/05/12 02:55:08;;;;;;;;;;;;;;;;;;4988038;28;19924;-58
2022/05/12 02:57:34;;;;;;;;;;;;;;;;;;4998505;28;19921;-58
2022/05/12 02:59:59;;;;;;;;;;;;;;;;;;4991340;28;20376;-58
2022/05/12 03:02:24;;;;;;;;;;;;;;;;;;4990840;28;19980;-58
2022/05/12 03:04:49;;;;;;;;;;;;;;;;;;5010000;28;19924;-58
2022/05/12 03:07:15;;;;;;;;;;;;;;;;;;4986513;28;19928;-58
2022/05/12 03:09:40;;;;;;;;;;;;;;;;;;4997389;28;19964;-58
2022/05/12 03:12:05;;;;;;;;;;;;;;;;;;4991500;28;19917;-58
2022/05/12 03:14:31;;;;;;;;;;;;;;;;;;4991928;28;20434;-57
2022/05/12 03:16:56;;;;;;;;;;;;;;;;;;4995295;28;19949;-58
2022/05/12 03:19:22;;;;;;;;;;;;;;;;;;4989947;28;19924;-58
2022/05/12 03:21:47;;;;;;;;;;;;;;;;;;4999783;28;20063;-58
2022/05/12 03:24:12;;;;;;;;;;;;;;;;;;4995393;28;19965;-59
2022/05/12 03:26:37;;;;;;;;;;;;;;;;;;4987128;28;20441;-57
2022/05/12 03:29:03;;;;;;;;;;;;;;;;;;4993272;28;20461;-58
2022/05/12 03:31:28;;;;;;;;;;;;;;;;;;4992318;28;19917;-57
2022/05/12 03:33:53;;;;;;;;;;;;;;;;;;4997977;28;20004;-57
2022/05/12 03:36:18;;;;;;;;;;;;;;;;;;4995645;28;20624;-57
2022/05/12 03:38:44;;;;;;;;;;;;;;;;;;5003978;28;19975;-57
2022/05/12 03:41:09;;;;;;;;;;;;;;;;;;4998881;28;19982;-57
2022/05/12 03:46:19;;;;;;;;;;;;;;;;;;4994485;28;19926;-58
2022/05/12 03:48:44;;;;;;;;;;;;;;;;;;4995740;28;20445;-57
2022/05/12 03:51:09;;;;;;;;;;;;;;;;;;4992064;28;19925;-58
2022/05/12 03:53:34;;;;;;;;;;;;;;;;;;4993202;28;19917;-58
2022/05/12 03:56:00;;;;;;;;;;;;;;;;;;4993977;28;20291;-57
2022/05/12 03:58:25;;;;;;;;;;;;;;;;;;5004403;28;19917;-58
2022/05/12 04:00:50;;;;;;;;;;;;;;;;;;4999393;28;19940;-57
2022/05/12 04:03:16;;;;;;;;;;;;;;;;;;4990491;28;19980;-55
2022/05/12 04:05:41;;;;;;;;;;;;;;;;;;4996367;28;19921;-57
2022/05/12 04:08:07;;;;;;;;;;;;;;;;;;4988118;28;19928;-58
2022/05/12 04:10:32;;;;;;;;;;;;;;;;;;4996961;28;19918;-58
2022/05/12 04:12:57;;;;;;;;;;;;;;;;;;4999783;28;19981;-58
2022/05/12 04:15:23;;;;;;;;;;;;;;;;;;4993231;28;20298;-57
2022/05/12 04:17:48;;;;;;;;;;;;;;;;;;4994043;28;19918;-57
2022/05/12 04:20:13;;;;;;;;;;;;;;;;;;4986877;28;19972;-58
2022/05/12 04:22:40;;;;;;;;;;;;;;;;;;4991663;28;19956;-58
2022/05/12 04:25:05;;;;;;;;;;;;;;;;;;5006429;28;20377;-58
2022/05/12 04:27:30;;;;;;;;;;;;;;;;;;4995325;28;19925;-58
2022/05/12 04:29:55;;;;;;;;;;;;;;;;;;4998878;28;20347;-58
2022/05/12 04:32:21;;;;;;;;;;;;;;;;;;5000550;28;19917;-58
2022/05/12 04:37:30;;;;;;;;;;;;;;;;;;4992844;28;20008;-59
2022/05/12 04:39:55;;;;;;;;;;;;;;;;;;4999912;28;19918;-57
2022/05/12 04:42:20;;;;;;;;;;;;;;;;;;5011856;28;19918;-57
2022/05/12 04:44:46;;;;;;;;;;;;;;;;;;5003053;28;19925;-57
2022/05/12 04:47:11;;;;;;;;;;;;;;;;;;4989765;28;19922;-58
2022/05/12 04:49:36;;;;;;;;;;;;;;;;;;4995129;28;20001;-58
2022/05/12 04:52:02;;;;;;;;;;;;;;;;;;4989600;28;20291;-58
2022/05/12 04:54:27;;;;;;;;;;;;;;;;;;4994111;28;20294;-58
2022/05/12 04:56:52;;;;;;;;;;;;;;;;;;4986154;28;20259;-58
2022/05/12 04:59:18;;;;;;;;;;;;;;;;;;5002817;28;19921;-58
2022/05/12 05:01:43;;;;;;;;;;;;;;;;;;4997327;28;20470;-58
2022/05/12 05:04:08;;;;;;;;;;;;;;;;;;4982114;28;19926;-58
2022/05/12 05:06:33;;;;;;;;;;;;;;;;;;4996655;28;19921;-58
2022/05/12 05:08:58;;;;;;;;;;;;;;;;;;4990179;28;19920;-57
2022/05/12 05:11:24;;;;;;;;;;;;;;;;;;4992352;28;19921;-58
2022/05/12 05:13:49;;;;;;;;;;;;;;;;;;4995849;28;19917;-59
2022/05/12 05:16:14;;;;;;;;;;;;;;;;;;4990238;28;19925;-58
2022/05/12 05:18:39;;;;;;;;;;;;;;;;;;5004356;28;19922;-57
2022/05/12 05:21:04;;;;;;;;;;;;;;;;;;4989476;28;19921;-57
2022/05/12 05:23:30;;;;;;;;;;;;;;;;;;4989444;28;19980;-58
2022/05/12 05:25:55;;;;;;;;;;;;;;;;;;4992929;28;19968;-57
2022/05/12 05:28:20;;;;;;;;;;;;;;;;;;4993997;28;19924;-58
2022/05/12 05:30:45;;;;;;;;;;;;;;;;;;4998832;28;19917;-58
2022/05/12 05:33:10;;;;;;;;;;;;;;;;;;4994363;28;20279;-57
2022/05/12 05:35:36;;;;;;;;;;;;;;;;;;4996926;28;20277;-58
2022/05/12 05:38:01;;;;;;;;;;;;;;;;;;4999786;28;19913;-58
2022/05/12 05:40:26;;;;;;;;;;;;;;;;;;4999490;28;19949;-58
2022/05/12 05:42:52;;;;;;;;;;;;;;;;;;4997992;28;20373;-58
2022/05/12 05:45:17;;;;;;;;;;;;;;;;;;5012684;28;20293;-57
2022/05/12 05:47:45;;;;;;;;;;;;;;;;;;4997573;28;19925;-57
2022/05/12 05:50:10;;;;;;;;;;;;;;;;;;4996140;28;20363;-58
2022/05/12 05:55:19;;;;;;;;;;;;;;;;;;4994646;28;19918;-58
2022/05/12 05:57:44;;;;;;;;;;;;;;;;;;5009168;28;19969;-57
2022/05/12 06:00:09;;;;;;;;;;;;;;;;;;4994577;28;19914;-58
2022/05/12 06:02:35;;;;;;;;;;;;;;;;;;4995236;28;19921;-58
2022/05/12 06:05:00;;;;;;;;;;;;;;;;;;5010852;28;20306;-59
2022/05/12 06:07:25;;;;;;;;;;;;;;;;;;4995062;28;20382;-58
2022/05/12 06:09:50;;;;;;;;;;;;;;;;;;4995471;28;20008;-58
2022/05/12 06:12:16;;;;;;;;;;;;;;;;;;4996576;28;19918;-58
2022/05/12 06:14:42;;;;;;;;;;;;;;;;;;5010912;28;19917;-58
2022/05/12 06:17:08;;;;;;;;;;;;;;;;;;4994004;28;20012;-58
2022/05/12 06:19:33;;;;;;;;;;;;;;;;;;5009002;28;19918;-58
2022/05/12 06:21:59;;;;;;;;;;;;;;;;;;4995673;28;20040;-59
2022/05/12 06:24:25;;;;;;;;;;;;;;;;;;4994230;28;20089;-58
2022/05/12 06:26:51;;;;;;;;;;;;;;;;;;5010229;28;20020;-58
2022/05/12 06:29:16;;;;;;;;;;;;;;;;;;4998268;28;19999;-59
2022/05/12 06:31:42;;;;;;;;;;;;;;;;;;4995638;28;20404;-58
2022/05/12 06:34:07;;;;;;;;;;;;;;;;;;4995118;28;20075;-59
2022/05/12 06:36:32;;;;;;;;;;;;;;;;;;5009244;28;19925;-58
2022/05/12 06:38:57;;;;;;;;;;;;;;;;;;4996587;28;19918;-59
2022/05/12 06:41:24;;;;;;;;;;;;;;;;;;4995203;28;19917;-58
2022/05/12 06:43:49;;;;;;;;;;;;;;;;;;5008937;28;19953;-58
2022/05/12 06:46:17;;;;;;;;;;;;;;;;;;5011412;28;19929;-58
2022/05/12 06:48:43;;;;;;;;;;;;;;;;;;4995100;28;19920;-58
2022/05/12 06:51:08;;;;;;;;;;;;;;;;;;5004979;28;19914;-57
2022/05/12 06:53:34;;;;;;;;;;;;;;;;;;4994527;28;20375;-58
2022/05/12 06:55:59;;;;;;;;;;;;;;;;;;4994304;28;20415;-57
2022/05/12 06:58:24;;;;;;;;;;;;;;;;;;4997457;28;20446;-58
2022/05/12 07:00:49;;;;;;;;;;;;;;;;;;4992225;28;19924;-57
2022/05/12 07:03:16;;;;;;;;;;;;;;;;;;4992779;28;19929;-58
2022/05/12 07:05:42;;;;;;;;;;;;;;;;;;4992350;28;19922;-59
2022/05/12 07:08:07;;;;;;;;;;;;;;;;;;4992703;28;19914;-58
2022/05/12 07:10:32;;;;;;;;;;;;;;;;;;4993816;28;20384;-58
2022/05/12 07:12:58;;;;;;;;;;;;;;;;;;4993861;28;19924;-58
2022/05/12 07:15:27;;;;;;;;;;;;;;;;;;4994637;28;19925;-58
2022/05/12 07:17:53;;;;;;;;;;;;;;;;;;4992285;28;19940;-58
2022/05/12 07:28:30;;;;;;;;;;;;;;;;;;4991901;28;19996;-60
2022/05/12 07:31:01;;;;;;;;;;;;;;;;;;4990221;28;19929;-59
2022/05/12 07:33:27;;;;;;;;;;;;;;;;;;4992759;28;20023;-58
2022/05/12 07:35:52;;;;;;;;;;;;;;;;;;4992185;28;20650;-58
2022/05/12 07:38:17;;;;;;;;;;;;;;;;;;4992938;28;20374;-59
2022/05/12 07:40:42;;;;;;;;;;;;;;;;;;4993316;28;20004;-59
2022/05/12 07:43:07;;;;;;;;;;;;;;;;;;4992908;28;20350;-59
2022/05/12 07:45:33;;;;;;;;;;;;;;;;;;4989221;28;20501;-59
2022/05/12 07:47:58;;;;;;;;;;;;;;;;;;4993020;28;19917;-59
2022/05/12 07:50:25;;;;;;;;;;;;;;;;;;4989965;28;19917;-63
2022/05/12 07:52:51;;;;;;;;;;;;;;;;;;5006453;28;19940;-59
2022/05/12 07:55:16;;;;;;;;;;;;;;;;;;4992012;28;20434;-58
2022/05/12 07:57:41;;;;;;;;;;;;;;;;;;4993392;28;20390;-59
2022/05/12 08:00:08;;;;;;;;;;;;;;;;;;5007828;28;20191;-59
2022/05/12 08:02:36;;;;;;;;;;;;;;;;;;4991568;28;19917;-59
2022/05/12 08:05:04;;;;;;;;;;;;;;;;;;4990493;28;19922;-59
2022/05/12 08:07:29;;;;;;;;;;;;;;;;;;4989629;28;19940;-60
2022/05/12 08:09:57;;;;;;;;;;;;;;;;;;4990776;28;20298;-59
2022/05/12 08:12:22;;;;;;;;;;;;;;;;;;4992513;28;19918;-59
2022/05/12 08:14:48;;;;;;;;;;;;;;;;;;4992044;28;19936;-59
2022/05/12 08:17:13;;;;;;;;;;;;;;;;;;4991363;28;20326;-60
2022/05/12 08:19:38;;;;;;;;;;;;;;;;;;4992506;28;19917;-59
2022/05/12 08:22:03;;;;;;;;;;;;;;;;;;4992989;28;19914;-59
2022/05/12 08:24:28;;;;;;;;;;;;;;;;;;4992148;28;20809;-59
2022/05/12 08:26:54;;;;;;;;;;;;;;;;;;4991409;28;19996;-59
2022/05/12 08:29:19;;;;;;;;;;;;;;;;;;4990693;28;19928;-59
2022/05/12 08:31:44;;;;;;;;;;;;;;;;;;4986883;28;19922;-59
2022/05/12 08:34:09;;;;;;;;;;;;;;;;;;4990942;28;19917;-59
2022/05/12 08:36:36;;;;;;;;;;;;;;;;;;5006456;28;19957;-59
2022/05/12 08:39:01;;;;;;;;;;;;;;;;;;4989695;28;19917;-62
2022/05/12 08:41:26;;;;;;;;;;;;;;;;;;4991114;28;19925;-59
2022/05/12 08:43:51;;;;;;;;;;;;;;;;;;4989886;28;20016;-59
2022/05/12 08:46:17;;;;;;;;;;;;;;;;;;4990540;28;20000;-61
2022/05/12 08:48:42;;;;;;;;;;;;;;;;;;4991780;28;19918;-60
2022/05/12 08:51:07;;;;;;;;;;;;;;;;;;4992785;28;20647;-59
2022/05/12 08:53:32;;;;;;;;;;;;;;;;;;5005843;28;20307;-61
2022/05/12 08:55:57;;;;;;;;;;;;;;;;;;4989557;28;19918;-60
2022/05/12 08:58:23;;;;;;;;;;;;;;;;;;4991573;28;20036;-60
2022/05/12 09:00:48;;;;;;;;;;;;;;;;;;4991632;28;20456;-60
2022/05/12 09:03:13;;;;;;;;;;;;;;;;;;4991482;28;19925;-60
2022/05/12 09:05:39;;;;;;;;;;;;;;;;;;4990279;28;19944;-59
2022/05/12 09:08:05;;;;;;;;;;;;;;;;;;4990894;28;19930;-59
2022/05/12 09:10:30;;;;;;;;;;;;;;;;;;4992041;28;20492;-60
2022/05/12 09:12:55;;;;;;;;;;;;;;;;;;4991558;28;20215;-57
2022/05/12 09:15:21;;;;;;;;;;;;;;;;;;4992703;28;19935;-58
2022/05/12 09:17:46;;;;;;;;;;;;;;;;;;4983837;28;19918;-57
2022/05/12 09:20:11;;;;;;;;;;;;;;;;;;4990677;28;19914;-56
2022/05/12 09:22:36;;;;;;;;;;;;;;;;;;4991614;28;20361;-59
2022/05/12 09:25:02;;;;;;;;;;;;;;;;;;5006390;28;20519;-60
2022/05/12 09:27:27;;;;;;;;;;;;;;;;;;4996353;28;20342;-60
2022/05/12 09:29:52;;;;;;;;;;;;;;;;;;4993804;28;19914;-59
2022/05/12 09:32:19;;;;;;;;;;;;;;;;;;4990558;28;19980;-60
2022/05/12 09:34:46;;;;;;;;;;;;;;;;;;4994308;28;20367;-59
2022/05/12 09:37:11;;;;;;;;;;;;;;;;;;4990501;28;20318;-59
2022/05/12 09:39:36;;;;;;;;;;;;;;;;;;5007498;28;19917;-60
2022/05/12 09:42:02;;;;;;;;;;;;;;;;;;5006815;28;19957;-60
2022/05/12 09:44:27;;;;;;;;;;;;;;;;;;4988539;28;19922;-59
2022/05/12 09:46:52;;;;;;;;;;;;;;;;;;5004605;28;20009;-60
2022/05/12 09:49:18;;;;;;;;;;;;;;;;;;4992633;28;19924;-60
2022/05/12 09:51:43;;;;;;;;;;;;;;;;;;4981915;28;19913;-60
2022/05/12 09:54:08;;;;;;;;;;;;;;;;;;4992287;28;19984;-60
2022/05/12 09:56:33;;;;;;;;;;;;;;;;;;4994630;28;19984;-59
2022/05/12 09:58:58;;;;;;;;;;;;;;;;;;4993351;28;19982;-60
2022/05/12 10:01:24;;;;;;;;;;;;;;;;;;4991738;28;19917;-60
2022/05/12 10:09:17;;;;;;;;;;;;;;;;;;5009046;28;20146;-60
2022/05/12 10:11:42;;;;;;;;;;;;;;;;;;4993144;28;20405;-60
2022/05/12 10:14:07;;;;;;;;;;;;;;;;;;4992536;28;19937;-59
2022/05/12 10:16:33;;;;;;;;;;;;;;;;;;4995991;28;19919;-59
2022/05/12 10:18:58;;;;;;;;;;;;;;;;;;4991761;28;20008;-59
2022/05/12 10:21:23;;;;;;;;;;;;;;;;;;4994471;28;19925;-60
2022/05/12 10:23:48;;;;;;;;;;;;;;;;;;4994075;28;19922;-60
2022/05/12 10:26:13;;;;;;;;;;;;;;;;;;4990772;28;20653;-60
2022/05/12 10:28:39;;;;;;;;;;;;;;;;;;4992887;28;19949;-59
2022/05/12 10:31:04;;;;;;;;;;;;;;;;;;5008005;28;19924;-59
2022/05/12 10:33:29;;;;;;;;;;;;;;;;;;4991807;28;19918;-59
2022/05/12 10:35:54;;;;;;;;;;;;;;;;;;4992796;28;19948;-60
2022/05/12 10:38:19;;;;;;;;;;;;;;;;;;4993884;28;19921;-59
2022/05/12 10:40:45;;;;;;;;;;;;;;;;;;4994056;28;19919;-59
2022/05/12 10:43:10;;;;;;;;;;;;;;;;;;5005459;28;19968;-59
2022/05/12 10:45:37;;;;;;;;;;;;;;;;;;4994757;28;19925;-59
2022/05/12 10:48:02;;;;;;;;;;;;;;;;;;4993775;28;19917;-59
2022/05/12 10:50:28;;;;;;;;;;;;;;;;;;5008609;28;19914;-60
2022/05/12 10:52:53;;;;;;;;;;;;;;;;;;4979863;28;19918;-59
2022/05/12 10:55:19;;;;;;;;;;;;;;;;;;4993830;28;20031;-59
2022/05/12 10:57:44;;;;;;;;;;;;;;;;;;4993832;28;19917;-59
2022/05/12 11:00:10;;;;;;;;;;;;;;;;;;4994701;28;19918;-60
2022/05/12 11:02:35;;;;;;;;;;;;;;;;;;4993498;28;20488;-60
2022/05/12 11:05:00;;;;;;;;;;;;;;;;;;4992872;28;19918;-59
2022/05/12 11:07:26;;;;;;;;;;;;;;;;;;4993513;28;19961;-60
2022/05/12 11:09:51;;;;;;;;;;;;;;;;;;5009587;28;20215;-59
2022/05/12 11:12:17;;;;;;;;;;;;;;;;;;4991959;28;19961;-60
2022/05/12 11:14:44;;;;;;;;;;;;;;;;;;4994976;28;20485;-59
2022/05/12 11:17:09;;;;;;;;;;;;;;;;;;4994079;28;20687;-60
2022/05/12 11:19:34;;;;;;;;;;;;;;;;;;4993148;28;19964;-60
2022/05/12 11:21:59;;;;;;;;;;;;;;;;;;4995294;28;19918;-60
2022/05/12 11:24:24;;;;;;;;;;;;;;;;;;4979328;28;19953;-60
2022/05/12 11:26:50;;;;;;;;;;;;;;;;;;4995127;28;20616;-60
2022/05/12 11:32:00;;;;;;;;;;;;;;;;;;4992009;28;19925;-60
2022/05/12 11:34:26;;;;;;;;;;;;;;;;;;5008590;28;19918;-60
2022/05/12 11:36:51;;;;;;;;;;;;;;;;;;5007951;28;19925;-60
2022/05/12 11:39:16;;;;;;;;;;;;;;;;;;5008404;28;19929;-60
2022/05/12 11:41:42;;;;;;;;;;;;;;;;;;4992339;28;19921;-60
2022/05/12 11:44:26;;;;;;;;;;;;;;;;;;4997467;28;19996;-60
2022/05/12 11:46:52;;;;;;;;;;;;;;;;;;4995430;28;19979;-60
2022/05/12 11:49:17;;;;;;;;;;;;;;;;;;4991989;28;19918;-61
2022/05/12 11:51:42;;;;;;;;;;;;;;;;;;4993565;28;19925;-61
2022/05/12 11:54:07;;;;;;;;;;;;;;;;;;4993083;28;19917;-60
2022/05/12 11:56:33;;;;;;;;;;;;;;;;;;4992234;28;20044;-61
2022/05/12 11:58:58;;;;;;;;;;;;;;;;;;5001599;28;19924;-60
2022/05/12 12:01:24;;;;;;;;;;;;;;;;;;4991821;28;20583;-60
2022/05/12 12:03:49;;;;;;;;;;;;;;;;;;4992066;28;20018;-60
2022/05/12 12:06:14;;;;;;;;;;;;;;;;;;4991383;28;19928;-61
2022/05/12 12:08:40;;;;;;;;;;;;;;;;;;4990460;28;19913;-60
2022/05/12 12:11:05;;;;;;;;;;;;;;;;;;4989640;28;20291;-60
2022/05/12 12:13:30;;;;;;;;;;;;;;;;;;4996434;28;19960;-60
2022/05/12 12:15:55;;;;;;;;;;;;;;;;;;4993786;28;19964;-61
2022/05/12 12:18:28;;;;;;;;;;;;;;;;;;4995277;28;19918;-60
2022/05/12 12:20:54;;;;;;;;;;;;;;;;;;4993146;28;19925;-61
2022/05/12 12:23:19;;;;;;;;;;;;;;;;;;4988419;28;19936;-61
2022/05/12 12:25:44;;;;;;;;;;;;;;;;;;4992280;28;20359;-61
2022/05/12 12:28:09;;;;;;;;;;;;;;;;;;4987993;28;19925;-61
2022/05/12 12:30:35;;;;;;;;;;;;;;;;;;5008459;28;19917;-61
2022/05/12 12:33:00;;;;;;;;;;;;;;;;;;4992027;28;19922;-62
2022/05/12 12:35:25;;;;;;;;;;;;;;;;;;4991051;28;19953;-61
2022/05/12 12:37:50;;;;;;;;;;;;;;;;;;4991000;28;19968;-60
2022/05/12 12:40:16;;;;;;;;;;;;;;;;;;4992357;28;19956;-61
2022/05/12 12:42:41;;;;;;;;;;;;;;;;;;4993050;28;19914;-61
2022/05/12 12:45:06;;;;;;;;;;;;;;;;;;4992806;28;19936;-60
2022/05/12 12:47:31;;;;;;;;;;;;;;;;;;5008541;28;19917;-61
2022/05/12 12:49:57;;;;;;;;;;;;;;;;;;4991187;28;20278;-61
2022/05/12 12:52:22;;;;;;;;;;;;;;;;;;4992888;28;19918;-61
2022/05/12 12:57:31;;;;;;;;;;;;;;;;;;4989599;28;19941;-61
2022/05/12 12:59:56;;;;;;;;;;;;;;;;;;4993836;28;20629;-61
2022/05/12 13:02:22;;;;;;;;;;;;;;;;;;4991604;28;19914;-61
2022/05/12 13:04:47;;;;;;;;;;;;;;;;;;4989940;28;19921;-61
2022/05/12 13:07:14;;;;;;;;;;;;;;;;;;4991231;28;19917;-60
2022/05/12 13:09:39;;;;;;;;;;;;;;;;;;4993689;28;19922;-62
2022/05/12 13:12:04;;;;;;;;;;;;;;;;;;4996084;28;20329;-61
2022/05/12 13:14:30;;;;;;;;;;;;;;;;;;4990171;28;19917;-61
2022/05/12 13:16:56;;;;;;;;;;;;;;;;;;4992132;28;20501;-61
2022/05/12 13:19:21;;;;;;;;;;;;;;;;;;5010242;28;19917;-61
2022/05/12 13:21:46;;;;;;;;;;;;;;;;;;4992646;28;19925;-61
2022/05/12 13:24:11;;;;;;;;;;;;;;;;;;4993202;28;20016;-61
2022/05/12 13:26:37;;;;;;;;;;;;;;;;;;4996578;28;19925;-61
2022/05/12 13:29:02;;;;;;;;;;;;;;;;;;4994796;28;19913;-61
2022/05/12 13:31:31;;;;;;;;;;;;;;;;;;4993237;28;20314;-61
2022/05/12 13:33:57;;;;;;;;;;;;;;;;;;4995677;28;19917;-63
2022/05/12 13:36:23;;;;;;;;;;;;;;;;;;4997795;28;19917;-63
2022/05/12 13:38:48;;;;;;;;;;;;;;;;;;4998595;28;19924;-61
2022/05/12 13:41:13;;;;;;;;;;;;;;;;;;4995492;28;19953;-61
2022/05/12 13:43:39;;;;;;;;;;;;;;;;;;4994862;28;19940;-61
2022/05/12 13:46:04;;;;;;;;;;;;;;;;;;4995280;28;19928;-61
2022/05/12 13:48:30;;;;;;;;;;;;;;;;;;4999652;28;20012;-60
2022/05/12 13:50:57;;;;;;;;;;;;;;;;;;4991751;28;20028;-61
2022/05/12 13:53:22;;;;;;;;;;;;;;;;;;5005311;28;19921;-61
2022/05/12 13:55:47;;;;;;;;;;;;;;;;;;4999561;28;19913;-61
2022/05/12 13:58:14;;;;;;;;;;;;;;;;;;4989654;28;19977;-61
2022/05/12 14:00:39;;;;;;;;;;;;;;;;;;4996981;28;19918;-61
2022/05/12 14:03:04;;;;;;;;;;;;;;;;;;4990783;28;19921;-60
2022/05/12 14:05:30;;;;;;;;;;;;;;;;;;4991795;28;19924;-61
2022/05/12 14:07:55;;;;;;;;;;;;;;;;;;4998326;28;19921;-61
2022/05/12 14:10:20;;;;;;;;;;;;;;;;;;4994520;28;19941;-62
2022/05/12 14:20:57;;;;;;;;;;;;;;;;;;4988459;28;19960;-62
2022/05/12 14:23:22;;;;;;;;;;;;;;;;;;4998184;28;19921;-60
2022/05/12 14:25:48;;;;;;;;;;;;;;;;;;4995177;28;19958;-60
2022/05/12 14:28:13;;;;;;;;;;;;;;;;;;4995176;28;19918;-61
2022/05/12 14:30:39;;;;;;;;;;;;;;;;;;4989792;28;19920;-60
2022/05/12 14:33:04;;;;;;;;;;;;;;;;;;5008609;28;19918;-61
2022/05/12 14:35:30;;;;;;;;;;;;;;;;;;5004127;28;20004;-60
2022/05/12 14:37:55;;;;;;;;;;;;;;;;;;4983454;28;19964;-60
2022/05/12 14:40:20;;;;;;;;;;;;;;;;;;4995063;28;19984;-60
2022/05/12 14:42:45;;;;;;;;;;;;;;;;;;4993810;28;19976;-60
2022/05/12 14:45:10;;;;;;;;;;;;;;;;;;4997416;28;20388;-61
2022/05/12 14:47:36;;;;;;;;;;;;;;;;;;4990788;28;19925;-60
2022/05/12 14:50:03;;;;;;;;;;;;;;;;;;4997874;28;19914;-60
2022/05/12 14:52:28;;;;;;;;;;;;;;;;;;5009701;28;19964;-61
2022/05/12 14:54:53;;;;;;;;;;;;;;;;;;4984531;28;19921;-60
2022/05/12 14:57:18;;;;;;;;;;;;;;;;;;4989241;28;19917;-60
2022/05/12 14:59:44;;;;;;;;;;;;;;;;;;5001658;28;19925;-60
2022/05/12 15:02:09;;;;;;;;;;;;;;;;;;4987384;28;19918;-60
2022/05/12 15:04:34;;;;;;;;;;;;;;;;;;4990121;28;19929;-61
2022/05/12 15:07:00;;;;;;;;;;;;;;;;;;4991418;28;19917;-60
2022/05/12 15:09:25;;;;;;;;;;;;;;;;;;4988574;28;19918;-60
2022/05/12 15:11:50;;;;;;;;;;;;;;;;;;4994496;28;20793;-60
2022/05/12 15:14:15;;;;;;;;;;;;;;;;;;4974171;28;19926;-61
2022/05/12 15:16:41;;;;;;;;;;;;;;;;;;4993366;28;20514;-60
2022/05/12 15:19:06;;;;;;;;;;;;;;;;;;4984499;28;20341;-60
2022/05/12 15:21:31;;;;;;;;;;;;;;;;;;5002194;28;19917;-60
2022/05/12 15:23:57;;;;;;;;;;;;;;;;;;4993709;28;19925;-60
2022/05/12 15:26:22;;;;;;;;;;;;;;;;;;4988133;28;20310;-60
2022/05/12 15:28:47;;;;;;;;;;;;;;;;;;4991811;28;20665;-59
2022/05/12 15:31:12;;;;;;;;;;;;;;;;;;4984882;28;20645;-60
2022/05/12 15:33:38;;;;;;;;;;;;;;;;;;4986806;28;19943;-60
2022/05/12 15:36:03;;;;;;;;;;;;;;;;;;4991462;28;19997;-60
2022/05/12 15:38:29;;;;;;;;;;;;;;;;;;4987925;28;19922;-60
2022/05/12 15:40:54;;;;;;;;;;;;;;;;;;4993878;28;19918;-61
2022/05/12 15:43:20;;;;;;;;;;;;;;;;;;4987419;28;19934;-61
2022/05/12 15:45:45;;;;;;;;;;;;;;;;;;4986388;28;20315;-60
2022/05/12 15:48:10;;;;;;;;;;;;;;;;;;5008740;28;20418;-60
2022/05/12 15:50:36;;;;;;;;;;;;;;;;;;4980427;28;19927;-59
2022/05/12 15:53:02;;;;;;;;;;;;;;;;;;4995448;28;19971;-60
2022/05/12 15:55:27;;;;;;;;;;;;;;;;;;4991922;28;19952;-60
2022/05/12 15:57:52;;;;;;;;;;;;;;;;;;4994262;28;19925;-60
2022/05/12 16:00:18;;;;;;;;;;;;;;;;;;4991359;28;19918;-60
2022/05/12 16:02:43;;;;;;;;;;;;;;;;;;5003307;28;20016;-59
2022/05/12 16:05:09;;;;;;;;;;;;;;;;;;4995859;28;19933;-60
2022/05/12 16:07:34;;;;;;;;;;;;;;;;;;4985757;28;20024;-59
2022/05/12 16:09:59;;;;;;;;;;;;;;;;;;4988348;28;19935;-60
2022/05/12 16:12:41;;;;;;;;;;;;;;;;;;4995567;28;20542;-59
2022/05/12 16:15:17;;;;;;;;;;;;;;;;;;4990598;28;19918;-60
2022/05/12 16:17:42;;;;;;;;;;;;;;;;;;4991159;28;19951;-59
2022/05/12 16:20:07;;;;;;;;;;;;;;;;;;4989752;28;19925;-59
2022/05/12 16:22:32;;;;;;;;;;;;;;;;;;4989505;28;19918;-59
2022/05/12 16:24:57;;;;;;;;;;;;;;;;;;4998291;28;20381;-60
2022/05/12 16:27:23;;;;;;;;;;;;;;;;;;4986888;28;20560;-60
2022/05/12 16:29:48;;;;;;;;;;;;;;;;;;4990594;28;20606;-59
2022/05/12 16:32:13;;;;;;;;;;;;;;;;;;4996907;28;19944;-58
2022/05/12 16:34:38;;;;;;;;;;;;;;;;;;4989476;28;19963;-58
2022/05/12 16:37:03;;;;;;;;;;;;;;;;;;4994505;28;19925;-60
2022/05/12 16:39:29;;;;;;;;;;;;;;;;;;4991302;28;20128;-59
2022/05/12 16:41:54;;;;;;;;;;;;;;;;;;4989221;28;19924;-60
2022/05/12 16:44:19;;;;;;;;;;;;;;;;;;4990028;28;19967;-60
2022/05/12 16:46:47;;;;;;;;;;;;;;;;;;4985687;28;19929;-61
2022/05/12 16:49:18;;;;;;;;;;;;;;;;;;4995133;28;19918;-62
2022/05/12 16:51:43;;;;;;;;;;;;;;;;;;4991082;28;20426;-62
2022/05/12 16:54:11;;;;;;;;;;;;;;;;;;4995312;28;19918;-64
2022/05/12 16:56:36;;;;;;;;;;;;;;;;;;4992284;28;19925;-65
2022/05/12 16:59:01;;;;;;;;;;;;;;;;;;4984698;28;19917;-66
2022/05/12 17:01:26;;;;;;;;;;;;;;;;;;4999952;28;19922;-66
2022/05/12 17:03:52;;;;;;;;;;;;;;;;;;4987555;28;19925;-66
2022/05/12 17:06:17;;;;;;;;;;;;;;;;;;4988509;28;20049;-66
2022/05/12 17:08:42;;;;;;;;;;;;;;;;;;4988881;28;20180;-65